createdAt,value
2022-10-17T00:00:43.790Z,101647.59
2022-10-17T00:03:06.185Z,101652.84
2022-10-17T00:05:28.619Z,101661.19
2022-10-17T00:07:51.857Z,101668.69
2022-10-17T00:10:14.269Z,101668.50
2022-10-17T00:12:36.603Z,101660.16
2022-10-17T00:14:59.015Z,101674.47
2022-10-17T00:17:21.411Z,101684.13
2022-10-17T00:19:43.771Z,101681.66
2022-10-17T00:22:06.167Z,101679.19
2022-10-17T00:24:30.670Z,101685.06
2022-10-17T00:26:53.112Z,101680.00
2022-10-17T00:29:15.489Z,101680.84
2022-10-17T00:31:37.994Z,101677.88
2022-10-17T00:34:00.412Z,101677.59
2022-10-17T00:36:25.047Z,101673.06
2022-10-17T00:38:50.142Z,101670.78
2022-10-17T00:41:15.849Z,101661.34
2022-10-17T00:44:29.016Z,101665.25
2022-10-17T00:46:51.496Z,101661.66
2022-10-17T00:49:13.906Z,101654.56
2022-10-17T00:51:58.055Z,101668.56
2022-10-17T00:54:25.554Z,101662.81
2022-10-17T00:56:48.119Z,101665.59
2022-10-17T00:59:11.583Z,101676.38
2022-10-17T01:01:34.491Z,101682.56
2022-10-17T01:03:56.850Z,101693.94
2022-10-17T01:06:19.310Z,101684.09
2022-10-17T01:08:41.769Z,101687.38
2022-10-17T01:11:18.915Z,101688.63
2022-10-17T01:14:07.333Z,101675.06
2022-10-17T01:16:49.118Z,101684.63
2022-10-17T01:19:51.898Z,101695.50
2022-10-17T01:22:28.053Z,101700.59
2022-10-17T01:25:05.490Z,101697.63
2022-10-17T01:28:13.299Z,101709.53
2022-10-17T01:31:09.940Z,101715.63
2022-10-17T01:33:57.350Z,101716.63
2022-10-17T01:36:57.578Z,101717.38
2022-10-17T01:39:34.445Z,101724.75
2022-10-17T01:42:25.056Z,101725.56
2022-10-17T01:45:10.934Z,101736.25
2022-10-17T01:47:33.796Z,101727.09
2022-10-17T01:50:00.179Z,101718.28
2022-10-17T01:52:26.945Z,101719.72
2022-10-17T01:54:55.861Z,101707.31
2022-10-17T01:57:31.847Z,101706.75
2022-10-17T01:59:54.877Z,101718.06
2022-10-17T02:02:17.301Z,101714.97
2022-10-17T02:04:39.848Z,101697.31
2022-10-17T02:07:12.556Z,101695.38
2022-10-17T02:09:36.113Z,101695.56
2022-10-17T02:12:26.394Z,101716.41
2022-10-17T02:15:10.707Z,101714.16
2022-10-17T02:17:53.024Z,101716.31
2022-10-17T02:20:30.337Z,101727.72
2022-10-17T02:26:40.688Z,101730.56
2022-10-17T02:29:15.722Z,101741.03
2022-10-17T02:31:49.797Z,101743.28
2022-10-17T02:34:26.216Z,101738.25
2022-10-17T02:36:55.901Z,101731.50
2022-10-17T02:39:19.034Z,101736.41
2022-10-17T02:41:41.536Z,101741.03
2022-10-17T02:44:04.019Z,101741.03
2022-10-17T02:46:26.377Z,101740.41
2022-10-17T02:49:12.248Z,101744.41
2022-10-17T02:52:25.516Z,101741.84
2022-10-17T02:55:01.560Z,101735.69
2022-10-17T02:57:43.587Z,101734.09
2022-10-17T03:00:12.093Z,101746.34
2022-10-17T03:02:47.755Z,101753.56
2022-10-17T03:05:12.717Z,101749.66
2022-10-17T03:07:35.137Z,101751.22
2022-10-17T03:09:57.554Z,101760.03
2022-10-17T03:12:19.975Z,101746.91
2022-10-17T03:14:42.431Z,101751.59
2022-10-17T03:17:04.758Z,101765.47
2022-10-17T03:19:27.182Z,101762.59
2022-10-17T03:21:49.960Z,101764.56
2022-10-17T03:24:12.362Z,101772.25
2022-10-17T03:26:34.751Z,101765.91
2022-10-17T03:28:57.242Z,101756.03
2022-10-17T03:31:19.670Z,101755.19
2022-10-17T03:33:42.130Z,101759.53
2022-10-17T03:36:09.346Z,101760.84
2022-10-17T03:38:31.764Z,101776.16
2022-10-17T03:40:57.284Z,101782.19
2022-10-17T03:43:19.651Z,101786.72
2022-10-17T03:45:42.033Z,101786.81
2022-10-17T03:48:04.815Z,101792.88
2022-10-17T03:50:27.200Z,101788.22
2022-10-17T03:52:49.704Z,101803.97
2022-10-17T03:55:12.064Z,101797.50
2022-10-17T03:57:36.767Z,101794.34
2022-10-17T03:59:59.202Z,101800.09
2022-10-17T04:02:21.585Z,101787.56
2022-10-17T04:04:43.984Z,101795.88
2022-10-17T04:07:06.316Z,101801.94
2022-10-17T04:09:28.767Z,101793.72
2022-10-17T04:11:51.146Z,101784.50
2022-10-17T04:14:14.457Z,101791.06
2022-10-17T04:16:36.762Z,101781.09
2022-10-17T04:18:59.838Z,101791.47
2022-10-17T04:21:23.673Z,101775.03
2022-10-17T04:23:46.084Z,101782.34
2022-10-17T04:26:08.486Z,101792.59
2022-10-17T04:28:31.232Z,101803.06
2022-10-17T04:31:01.773Z,101795.38
2022-10-17T04:33:24.157Z,101801.44
2022-10-17T04:35:26.412Z,101786.44
2022-10-17T04:37:29.681Z,101783.56
2022-10-17T04:39:31.908Z,101778.03
2022-10-17T04:41:34.223Z,101789.72
2022-10-17T04:43:37.347Z,101785.00
2022-10-17T04:45:39.583Z,101797.75
2022-10-17T04:47:41.739Z,101794.38
2022-10-17T04:49:44.011Z,101782.75
2022-10-17T04:51:46.245Z,101788.22
2022-10-17T04:53:48.447Z,101786.25
2022-10-17T04:55:50.708Z,101791.28
2022-10-17T04:57:52.892Z,101802.06
2022-10-17T04:59:55.182Z,101807.41
2022-10-17T05:01:57.394Z,101810.69
2022-10-17T05:03:59.670Z,101808.44
2022-10-17T05:06:14.177Z,101813.44
2022-10-17T05:08:16.328Z,101806.78
2022-10-17T05:10:18.585Z,101808.44
2022-10-17T05:12:20.776Z,101809.63
2022-10-17T05:14:23.005Z,101810.38
2022-10-17T05:16:25.700Z,101817.28
2022-10-17T05:18:28.811Z,101819.53
2022-10-17T05:20:31.108Z,101827.53
2022-10-17T05:22:36.038Z,101819.44
2022-10-17T05:24:39.318Z,101813.88
2022-10-17T05:26:41.496Z,101812.34
2022-10-17T05:28:43.739Z,101809.25
2022-10-17T05:30:45.930Z,101812.34
2022-10-17T05:32:48.158Z,101818.09
2022-10-17T05:34:50.362Z,101813.16
2022-10-17T05:36:52.544Z,101818.69
2022-10-17T05:38:54.727Z,101813.38
2022-10-17T05:41:03.621Z,101827.13
2022-10-17T05:43:06.062Z,101826.63
2022-10-17T05:45:08.773Z,101839.56
2022-10-17T05:47:10.897Z,101824.88
2022-10-17T05:49:19.748Z,101826.84
2022-10-17T05:51:34.380Z,101828.78
2022-10-17T05:53:38.243Z,101832.69
2022-10-17T05:55:40.411Z,101836.50
2022-10-17T05:57:42.593Z,101834.22
2022-10-17T05:59:44.774Z,101838.88
2022-10-17T06:01:47.008Z,101828.56
2022-10-17T06:03:49.240Z,101837.66
2022-10-17T06:05:52.497Z,101837.66
2022-10-17T06:07:58.159Z,101835.09
2022-10-17T06:10:03.610Z,101831.69
2022-10-17T06:12:06.277Z,101839.63
2022-10-17T06:14:08.705Z,101852.03
2022-10-17T06:16:10.885Z,101854.44
2022-10-17T06:18:13.036Z,101852.06
2022-10-17T06:20:15.281Z,101850.81
2022-10-17T06:22:17.544Z,101847.13
2022-10-17T06:24:19.878Z,101853.41
2022-10-17T06:26:22.180Z,101853.31
2022-10-17T06:28:24.421Z,101853.53
2022-10-17T06:30:26.677Z,101854.84
2022-10-17T06:32:29.076Z,101860.28
2022-10-17T06:34:31.533Z,101864.59
2022-10-17T06:36:33.706Z,101877.22
2022-10-17T06:38:36.160Z,101864.38
2022-10-17T06:40:38.375Z,101873.22
2022-10-17T06:42:41.209Z,101868.69
2022-10-17T06:44:43.373Z,101879.09
2022-10-17T06:46:45.563Z,101876.47
2022-10-17T06:48:47.727Z,101879.66
2022-10-17T06:50:49.925Z,101883.13
2022-10-17T06:52:52.373Z,101889.41
2022-10-17T06:54:54.684Z,101883.75
2022-10-17T06:56:56.928Z,101888.66
2022-10-17T06:58:59.211Z,101890.81
2022-10-17T07:01:04.461Z,101886.78
2022-10-17T07:03:06.762Z,101887.31
2022-10-17T07:05:09.108Z,101891.09
2022-10-17T07:07:11.270Z,101891.19
2022-10-17T07:09:13.505Z,101885.69
2022-10-17T07:11:18.423Z,101881.66
2022-10-17T07:13:20.879Z,101886.25
2022-10-17T07:15:23.079Z,101889.03
2022-10-17T07:17:25.512Z,101890.75
2022-10-17T07:19:27.698Z,101898.78
2022-10-17T07:21:30.060Z,101894.72
2022-10-17T07:23:34.360Z,101888.22
2022-10-17T07:25:40.026Z,101889.56
2022-10-17T07:27:42.564Z,101891.06
2022-10-17T07:29:44.727Z,101889.59
2022-10-17T07:31:48.889Z,101891.56
2022-10-17T07:33:51.321Z,101894.41
2022-10-17T07:35:53.619Z,101893.78
2022-10-17T07:37:55.811Z,101885.47
2022-10-17T07:39:58.136Z,101886.81
2022-10-17T07:42:00.346Z,101897.81
2022-10-17T07:44:02.559Z,101887.34
2022-10-17T07:46:05.860Z,101896.25
2022-10-17T07:48:08.089Z,101888.75
2022-10-17T07:50:10.509Z,101886.47
2022-10-17T07:52:13.758Z,101881.44
2022-10-17T07:54:15.936Z,101878.69
2022-10-17T07:56:18.230Z,101872.97
2022-10-17T07:58:20.473Z,101862.00
2022-10-17T08:00:22.693Z,101866.28
2022-10-17T08:02:26.377Z,101870.72
2022-10-17T08:04:28.767Z,101863.66
2022-10-17T08:06:32.201Z,101873.84
2022-10-17T08:08:34.610Z,101875.13
2022-10-17T08:10:37.302Z,101874.13
2022-10-17T08:12:39.805Z,101878.56
2022-10-17T08:14:42.938Z,101870.19
2022-10-17T08:16:45.552Z,101869.66
2022-10-17T08:18:47.877Z,101869.31
2022-10-17T08:20:50.410Z,101863.34
2022-10-17T08:22:54.503Z,101873.25
2022-10-17T08:24:56.706Z,101864.66
2022-10-17T08:27:00.665Z,101856.66
2022-10-17T08:29:03.038Z,101858.50
2022-10-17T08:31:07.861Z,101859.66
2022-10-17T08:33:10.408Z,101851.88
2022-10-17T08:35:14.860Z,101851.19
2022-10-17T08:37:20.256Z,101857.19
2022-10-17T08:39:22.617Z,101856.28
2022-10-17T08:41:52.445Z,101846.81
2022-10-17T08:44:25.926Z,101839.56
2022-10-17T08:46:34.105Z,101847.16
2022-10-17T08:48:46.410Z,101834.25
2022-10-17T08:51:21.448Z,101851.63
2022-10-17T08:53:40.388Z,101844.72
2022-10-17T08:55:50.804Z,101845.28
2022-10-17T08:57:52.987Z,101841.81
2022-10-17T08:59:55.396Z,101845.97
2022-10-17T09:02:03.006Z,101838.97
2022-10-17T09:04:33.754Z,101839.25
2022-10-17T09:06:44.495Z,101834.44
2022-10-17T09:09:04.934Z,101834.38
2022-10-17T09:11:43.294Z,101828.94
2022-10-17T09:14:22.304Z,101834.75
2022-10-17T09:17:04.448Z,101829.69
2022-10-17T09:19:51.583Z,101829.25
2022-10-17T09:22:19.882Z,101834.81
2022-10-17T09:24:50.742Z,101828.31
2022-10-17T09:26:53.034Z,101822.09
2022-10-17T09:28:59.443Z,101823.38
2022-10-17T09:31:22.064Z,101825.66
2022-10-17T09:33:55.652Z,101822.06
2022-10-17T09:35:57.914Z,101832.88
2022-10-17T09:38:00.055Z,101830.16
2022-10-17T09:40:25.486Z,101827.59
2022-10-17T09:42:48.255Z,101824.03
2022-10-17T09:45:26.943Z,101828.16
2022-10-17T09:48:47.823Z,101818.84
2022-10-17T09:51:21.749Z,101826.06
2022-10-17T09:53:56.663Z,101828.88
2022-10-17T09:56:19.731Z,101832.41
2022-10-17T09:58:49.062Z,101834.06
2022-10-17T10:01:22.953Z,101843.25
2022-10-17T10:03:46.630Z,101839.41
2022-10-17T10:06:20.031Z,101842.00
2022-10-17T10:09:22.741Z,101838.34
2022-10-17T10:11:51.576Z,101828.41
2022-10-17T10:14:21.829Z,101832.56
2022-10-17T10:16:44.329Z,101828.75
2022-10-17T10:19:30.448Z,101824.59
2022-10-17T10:21:58.844Z,101834.03
2022-10-17T10:24:21.970Z,101826.22
2022-10-17T10:26:50.732Z,101823.28
2022-10-17T10:29:37.132Z,101831.13
2022-10-17T10:32:21.781Z,101813.78
2022-10-17T10:34:54.926Z,101816.72
2022-10-17T10:37:26.500Z,101823.25
2022-10-17T10:39:53.736Z,101808.97
2022-10-17T10:42:32.370Z,101811.53
2022-10-17T10:44:57.141Z,101813.88
2022-10-17T10:47:28.964Z,101809.50
2022-10-17T10:49:53.069Z,101802.59
2022-10-17T10:52:44.060Z,101810.72
2022-10-17T10:55:47.869Z,101798.09
2022-10-17T10:58:45.699Z,101798.00
2022-10-17T11:01:34.541Z,101787.88
2022-10-17T11:04:32.815Z,101787.34
2022-10-17T11:07:06.879Z,101782.00
2022-10-17T11:10:00.806Z,101781.41
2022-10-17T11:12:46.398Z,101788.84
2022-10-17T11:15:22.352Z,101774.50
2022-10-17T11:18:07.833Z,101777.06
2022-10-17T11:20:51.950Z,101769.53
2022-10-17T11:23:21.741Z,101777.16
2022-10-17T11:25:43.804Z,101788.72
2022-10-17T11:28:14.541Z,101774.84
2022-10-17T11:30:52.859Z,101772.91
2022-10-17T11:33:29.164Z,101781.00
2022-10-17T11:35:53.188Z,101789.16
2022-10-17T11:38:36.672Z,101788.75
2022-10-17T11:40:59.909Z,101777.84
2022-10-17T11:43:37.085Z,101770.16
2022-10-17T11:46:05.411Z,101764.47
2022-10-17T11:48:39.686Z,101761.16
2022-10-17T11:54:15.104Z,101759.56
2022-10-17T11:56:45.805Z,101764.41
2022-10-17T11:59:45.250Z,101756.59
2022-10-17T12:02:18.259Z,101754.56
2022-10-17T12:05:21.234Z,101757.41
2022-10-17T12:08:31.216Z,101747.25
2022-10-17T12:11:15.364Z,101743.84
2022-10-17T12:13:50.061Z,101744.94
2022-10-17T12:15:52.154Z,101750.22
2022-10-17T12:18:03.544Z,101753.75
2022-10-17T12:20:38.026Z,101748.34
2022-10-17T12:22:49.594Z,101744.00
2022-10-17T12:25:01.775Z,101730.66
2022-10-17T12:27:33.562Z,101725.72
2022-10-17T12:29:35.590Z,101724.13
2022-10-17T12:31:37.572Z,101727.06
2022-10-17T12:33:49.042Z,101712.19
2022-10-17T12:35:51.714Z,101714.66
2022-10-17T12:37:57.336Z,101714.38
2022-10-17T12:40:01.221Z,101718.09
2022-10-17T12:42:03.489Z,101720.56
2022-10-17T12:44:14.445Z,101712.06
2022-10-17T12:46:54.502Z,101719.03
2022-10-17T12:49:01.508Z,101719.44
2022-10-17T12:51:36.509Z,101720.31
2022-10-17T12:53:56.990Z,101715.09
2022-10-17T12:56:07.957Z,101709.41
2022-10-17T12:58:14.508Z,101709.41
2022-10-17T13:00:37.169Z,101702.91
2022-10-17T13:02:39.308Z,101708.97
2022-10-17T13:04:41.317Z,101702.06
2022-10-17T13:06:48.662Z,101704.91
2022-10-17T13:09:04.226Z,101699.19
2022-10-17T13:11:07.620Z,101701.22
2022-10-17T13:13:48.742Z,101691.94
2022-10-17T13:15:53.703Z,101686.69
2022-10-17T13:17:59.435Z,101681.03
2022-10-17T13:20:01.866Z,101682.69
2022-10-17T13:22:07.099Z,101690.72
2022-10-17T13:24:31.277Z,101682.63
2022-10-17T13:26:33.376Z,101689.50
2022-10-17T13:28:39.151Z,101681.38
2022-10-17T13:30:47.853Z,101670.03
2022-10-17T13:32:51.483Z,101679.31
2022-10-17T13:35:59.370Z,101677.69
2022-10-17T13:38:03.297Z,101677.22
2022-10-17T13:40:30.826Z,101672.03
2022-10-17T13:42:41.109Z,101673.25
2022-10-17T13:44:43.585Z,101667.19
2022-10-17T13:46:45.870Z,101669.66
2022-10-17T13:48:49.544Z,101668.81
2022-10-17T13:51:03.008Z,101669.66
2022-10-17T13:53:19.609Z,101672.53
2022-10-17T13:55:22.449Z,101664.00
2022-10-17T13:57:31.881Z,101654.28
2022-10-17T13:59:41.321Z,101653.06
2022-10-17T14:01:43.447Z,101647.41
2022-10-17T14:03:48.954Z,101648.63
2022-10-17T14:06:19.238Z,101643.78
2022-10-17T14:08:51.630Z,101627.16
2022-10-17T14:11:18.467Z,101637.22
2022-10-17T14:13:40.813Z,101649.28
2022-10-17T14:16:03.850Z,101633.53
2022-10-17T14:18:35.048Z,101645.25
2022-10-17T14:23:44.826Z,101625.91
2022-10-17T14:26:23.212Z,101631.94
2022-10-17T14:29:07.760Z,101627.09
2022-10-17T14:31:35.254Z,101629.94
2022-10-17T14:33:57.714Z,101623.84
2022-10-17T14:36:21.163Z,101630.69
2022-10-17T14:38:23.315Z,101631.09
2022-10-17T14:41:04.811Z,101632.28
2022-10-17T14:43:24.216Z,101622.91
2022-10-17T14:45:37.647Z,101620.81
2022-10-17T14:47:43.599Z,101617.53
2022-10-17T14:50:28.678Z,101625.56
2022-10-17T14:53:25.463Z,101628.38
2022-10-17T14:55:59.770Z,101632.75
2022-10-17T14:58:32.811Z,101629.00
2022-10-17T15:00:59.765Z,101628.56
2022-10-17T15:03:22.284Z,101617.91
2022-10-17T15:05:44.961Z,101616.66
2022-10-17T15:08:18.364Z,101616.19
2022-10-17T15:10:43.758Z,101614.94
2022-10-17T15:15:51.381Z,101623.22
2022-10-17T15:18:14.781Z,101623.28
2022-10-17T15:20:37.342Z,101630.06
2022-10-17T15:23:01.613Z,101618.69
2022-10-17T15:25:24.620Z,101619.03
2022-10-17T15:27:46.998Z,101618.59
2022-10-17T15:30:36.616Z,101619.16
2022-10-17T15:32:59.420Z,101616.56
2022-10-17T15:35:22.092Z,101616.47
2022-10-17T15:37:46.719Z,101615.91
2022-10-17T15:40:24.595Z,101610.03
2022-10-17T15:42:47.086Z,101613.41
2022-10-17T15:45:12.302Z,101611.25
2022-10-17T15:47:34.726Z,101617.53
2022-10-17T15:49:57.454Z,101618.19
2022-10-17T15:52:19.832Z,101627.75
2022-10-17T15:54:42.151Z,101619.13
2022-10-17T15:57:04.514Z,101624.25
2022-10-17T15:59:31.582Z,101613.69
2022-10-17T16:01:53.911Z,101615.13
2022-10-17T16:04:16.306Z,101612.25
2022-10-17T16:06:39.155Z,101610.84
2022-10-17T16:09:01.503Z,101618.81
2022-10-17T16:11:38.227Z,101617.91
2022-10-17T16:14:03.037Z,101623.31
2022-10-17T16:16:25.400Z,101622.00
2022-10-17T16:18:47.958Z,101625.09
2022-10-17T16:21:15.642Z,101618.91
2022-10-17T16:23:37.992Z,101618.84
2022-10-17T16:26:00.276Z,101628.41
2022-10-17T16:28:22.634Z,101634.28
2022-10-17T16:30:46.348Z,101633.47
2022-10-17T16:33:10.436Z,101618.88
2022-10-17T16:35:36.513Z,101612.72
2022-10-17T16:38:00.014Z,101611.84
2022-10-17T16:40:22.371Z,101621.38
2022-10-17T16:42:44.979Z,101609.63
2022-10-17T16:45:08.113Z,101608.34
2022-10-17T16:47:30.387Z,101618.63
2022-10-17T16:49:52.735Z,101617.38
2022-10-17T16:52:15.686Z,101614.50
2022-10-17T16:54:38.128Z,101608.78
2022-10-17T16:57:01.089Z,101615.16
2022-10-17T16:59:24.325Z,101616.63
2022-10-17T17:01:46.575Z,101616.47
2022-10-17T17:04:09.498Z,101618.38
2022-10-17T17:06:31.978Z,101615.94
2022-10-17T17:08:55.034Z,101610.63
2022-10-17T17:11:18.828Z,101614.94
2022-10-17T17:13:41.470Z,101608.81
2022-10-17T17:16:24.023Z,101613.91
2022-10-17T17:18:46.870Z,101617.44
2022-10-17T17:21:10.489Z,101618.91
2022-10-17T17:23:38.014Z,101609.28
2022-10-17T17:26:05.584Z,101610.03
2022-10-17T17:28:28.393Z,101615.19
2022-10-17T17:30:50.758Z,101617.44
2022-10-17T17:33:13.102Z,101610.56
2022-10-17T17:35:35.712Z,101616.44
2022-10-17T17:37:58.125Z,101616.91
2022-10-17T17:40:20.506Z,101621.88
2022-10-17T17:42:43.082Z,101629.13
2022-10-17T17:44:45.283Z,101623.53
2022-10-17T17:46:48.252Z,101613.03
2022-10-17T17:48:51.286Z,101606.59
2022-10-17T17:50:53.419Z,101608.53
2022-10-17T17:52:55.538Z,101614.81
2022-10-17T17:54:57.678Z,101607.59
2022-10-17T17:56:59.885Z,101618.31
2022-10-17T17:59:02.589Z,101613.41
2022-10-17T18:01:14.319Z,101612.84
2022-10-17T18:03:17.247Z,101613.22
2022-10-17T18:05:40.178Z,101610.66
2022-10-17T18:08:00.717Z,101613.03
2022-10-17T18:10:23.035Z,101600.44
2022-10-17T18:12:45.430Z,101597.22
2022-10-17T18:15:08.234Z,101597.47
2022-10-17T18:17:30.612Z,101599.81
2022-10-17T18:19:52.926Z,101595.19
2022-10-17T18:22:15.277Z,101587.97
2022-10-17T18:24:37.611Z,101589.47
2022-10-17T18:27:00.082Z,101592.56
2022-10-17T18:29:22.503Z,101598.53
2022-10-17T18:31:44.956Z,101595.25
2022-10-17T18:34:07.332Z,101588.69
2022-10-17T18:36:30.548Z,101589.91
2022-10-17T18:38:53.381Z,101588.16
2022-10-17T18:41:18.356Z,101592.06
2022-10-17T18:43:42.688Z,101588.31
2022-10-17T18:46:15.635Z,101591.56
2022-10-17T18:48:40.370Z,101587.16
2022-10-17T18:51:04.125Z,101582.28
2022-10-17T18:53:26.504Z,101581.06
2022-10-17T18:55:50.761Z,101573.38
2022-10-17T18:58:13.129Z,101579.25
2022-10-17T19:00:35.460Z,101582.78
2022-10-17T19:02:57.816Z,101583.03
2022-10-17T19:05:20.160Z,101576.97
2022-10-17T19:07:42.527Z,101579.78
2022-10-17T19:10:05.165Z,101578.50
2022-10-17T19:12:27.620Z,101584.94
2022-10-17T19:14:50.941Z,101581.09
2022-10-17T19:17:13.299Z,101587.06
2022-10-17T19:19:36.064Z,101590.22
2022-10-17T19:22:00.122Z,101585.44
2022-10-17T19:24:27.053Z,101586.69
2022-10-17T19:26:50.482Z,101588.22
2022-10-17T19:29:17.054Z,101582.19
2022-10-17T19:31:39.417Z,101589.66
2022-10-17T19:34:01.836Z,101594.00
2022-10-17T19:36:30.759Z,101587.69
2022-10-17T19:38:56.231Z,101587.91
2022-10-17T19:41:18.679Z,101589.44
2022-10-17T19:43:42.133Z,101588.28
2022-10-17T19:46:07.967Z,101581.66
2022-10-17T19:48:32.808Z,101578.72
2022-10-17T19:50:55.143Z,101579.09
2022-10-17T19:53:17.841Z,101585.03
2022-10-17T19:55:40.183Z,101585.75
2022-10-17T19:58:03.011Z,101582.03
2022-10-17T20:00:25.357Z,101590.78
2022-10-17T20:02:47.697Z,101586.72
2022-10-17T20:05:18.644Z,101592.66
2022-10-17T20:07:41.892Z,101584.16
2022-10-17T20:10:05.200Z,101587.19
2022-10-17T20:12:27.608Z,101584.63
2022-10-17T20:14:50.069Z,101586.94
2022-10-17T20:17:12.420Z,101588.94
2022-10-17T20:19:34.822Z,101591.59
2022-10-17T20:21:57.186Z,101590.00
2022-10-17T20:24:19.542Z,101581.59
2022-10-17T20:26:42.061Z,101588.72
2022-10-17T20:29:08.757Z,101588.72
2022-10-17T20:31:31.349Z,101593.50
2022-10-17T20:33:57.831Z,101593.03
2022-10-17T20:36:23.359Z,101592.56
2022-10-17T20:38:45.723Z,101592.13
2022-10-17T20:41:09.553Z,101595.25
2022-10-17T20:43:32.098Z,101593.84
2022-10-17T20:46:03.493Z,101594.69
2022-10-17T20:48:31.036Z,101592.59
2022-10-17T20:50:53.676Z,101593.41
2022-10-17T20:56:07.858Z,101591.19
2022-10-17T20:58:30.193Z,101584.31
2022-10-17T21:00:52.584Z,101582.22
2022-10-17T21:03:15.002Z,101589.09
2022-10-17T21:05:40.962Z,101580.00
2022-10-17T21:08:03.392Z,101582.69
2022-10-17T21:10:35.332Z,101591.41
2022-10-17T21:12:59.663Z,101593.75
2022-10-17T21:15:22.447Z,101590.94
2022-10-17T21:17:44.809Z,101594.13
2022-10-17T21:20:07.911Z,101588.97
2022-10-17T21:22:30.569Z,101591.31
2022-10-17T21:24:53.084Z,101577.22
2022-10-17T21:27:17.935Z,101583.13
2022-10-17T21:29:40.259Z,101570.31
2022-10-17T21:32:02.601Z,101570.31
2022-10-17T21:34:25.245Z,101574.63
2022-10-17T21:36:48.241Z,101577.91
2022-10-17T21:39:12.065Z,101573.34
2022-10-17T21:41:34.437Z,101575.19
2022-10-17T21:44:02.420Z,101574.50
2022-10-17T21:46:24.809Z,101570.22
2022-10-17T21:48:47.590Z,101581.28
2022-10-17T21:51:14.163Z,101570.44
2022-10-17T21:53:36.716Z,101578.38
2022-10-17T21:56:00.856Z,101573.94
2022-10-17T21:58:23.211Z,101583.47
2022-10-17T22:00:45.611Z,101567.06
2022-10-17T22:03:09.570Z,101581.03
2022-10-17T22:05:31.908Z,101589.06
2022-10-17T22:07:54.270Z,101582.91
2022-10-17T22:10:16.626Z,101576.59
2022-10-17T22:12:38.962Z,101578.25
2022-10-17T22:15:01.588Z,101579.41
2022-10-17T22:17:24.021Z,101575.00
2022-10-17T22:19:46.364Z,101574.38
2022-10-17T22:22:08.948Z,101569.47
2022-10-17T22:24:31.271Z,101577.88
2022-10-17T22:26:53.634Z,101585.44
2022-10-17T22:29:16.076Z,101581.38
2022-10-17T22:31:38.585Z,101581.38
2022-10-17T22:34:00.956Z,101579.97
2022-10-17T22:36:23.476Z,101565.97
2022-10-17T22:38:45.859Z,101578.34
2022-10-17T22:41:08.426Z,101566.69
2022-10-17T22:43:30.985Z,101565.72
2022-10-17T22:45:54.797Z,101564.13
2022-10-17T22:48:17.191Z,101567.94
2022-10-17T22:50:41.821Z,101571.94
2022-10-17T22:53:04.139Z,101577.22
2022-10-17T22:55:26.717Z,101576.75
2022-10-17T22:57:49.062Z,101575.00
2022-10-17T23:00:12.207Z,101580.91
2022-10-17T23:02:34.581Z,101578.81
2022-10-17T23:04:56.917Z,101573.22
2022-10-17T23:07:19.315Z,101572.63
2022-10-17T23:09:41.861Z,101565.75
2022-10-17T23:12:04.792Z,101571.56
2022-10-17T23:14:27.110Z,101561.56
2022-10-17T23:16:49.441Z,101567.00
2022-10-17T23:19:11.804Z,101566.56
2022-10-17T23:21:34.182Z,101574.13
2022-10-17T23:23:56.558Z,101565.47
2022-10-17T23:26:18.938Z,101568.59
2022-10-17T23:28:42.255Z,101576.88
2022-10-17T23:31:16.824Z,101569.78
2022-10-17T23:33:41.365Z,101568.13
2022-10-17T23:36:05.526Z,101562.06
2022-10-17T23:38:27.876Z,101569.97
2022-10-17T23:40:50.288Z,101576.22
2022-10-17T23:43:12.773Z,101561.81
2022-10-17T23:45:37.235Z,101566.31
2022-10-17T23:47:59.781Z,101558.75
2022-10-17T23:50:22.163Z,101566.31
2022-10-17T23:52:44.604Z,101561.75
2022-10-17T23:55:08.301Z,101571.28
2022-10-17T23:57:30.883Z,101572.78
2022-10-17T23:59:53.547Z,101576.41
